Time;durP1;ratioP1;P1;durP2;ratioP2;P2;SDS_P1;SDS_P2;PMS_P1;PMS_P2;Temp;Humidity;BMP_temperature;BMP_pressure;BME280_temperature;BME280_humidity;BME280_pressure;Samples;Min_cycle;Max_cycle;Signal;HPM_P1;HPM_P2
2021/03/06 00:02:07;;;;;;;23.23;14.32;;;;;;;9.86;65.27;100617.97;5049575;28;20037;-68
2021/03/06 00:04:33;;;;;;;23.75;15.13;;;;;;;9.74;65.40;100594.22;5050503;28;20083;-68
2021/03/06 00:09:33;;;;;;;20.85;12.98;;;;;;;9.88;65.06;100632.69;5158365;22;20054;-67
2021/03/06 00:11:59;;;;;;;20.20;12.20;;;;;;;9.80;65.08;100625.44;5031481;28;20041;-68
2021/03/06 00:14:24;;;;;;;19.00;12.25;;;;;;;9.73;65.33;100634.59;5025513;28;20038;-67
2021/03/06 00:16:50;;;;;;;22.83;12.43;;;;;;;9.74;65.40;100638.06;5017117;28;20026;-71
2021/03/06 00:19:15;;;;;;;20.50;12.75;;;;;;;9.63;65.69;100638.50;5029850;28;20029;-66
2021/03/06 00:21:41;;;;;;;22.08;13.27;;;;;;;9.33;65.45;100640.56;5020936;28;20025;-70
2021/03/06 00:24:07;;;;;;;22.27;13.88;;;;;;;8.65;67.35;100637.47;5030311;28;20084;-71
2021/03/06 00:26:32;;;;;;;25.42;15.20;;;;;;;8.56;68.73;100650.78;5021732;28;20113;-69
2021/03/06 00:28:58;;;;;;;26.55;14.68;;;;;;;8.38;68.42;100631.03;5019344;28;20112;-69
2021/03/06 00:31:23;;;;;;;24.63;16.33;;;;;;;8.46;68.75;100654.63;5034014;28;20481;-69
2021/03/06 00:33:48;;;;;;;24.85;15.52;;;;;;;8.46;69.06;100635.69;5034233;28;20108;-70
2021/03/06 00:36:14;;;;;;;22.80;12.85;;;;;;;8.61;68.98;100644.19;5032793;28;20036;-69
2021/03/06 00:38:39;;;;;;;22.02;11.80;;;;;;;8.58;68.64;100632.06;5034314;28;20021;-72
2021/03/06 00:41:05;;;;;;;23.50;13.85;;;;;;;8.47;68.97;100628.06;5033936;28;20026;-69
2021/03/06 00:43:30;;;;;;;22.60;13.68;;;;;;;8.62;69.03;100652.78;5049540;28;20017;-71
2021/03/06 00:45:56;;;;;;;19.90;12.32;;;;;;;8.55;68.90;100621.59;5034033;28;20036;-72
2021/03/06 00:48:21;;;;;;;35.35;19.10;;;;;;;8.76;68.68;100631.16;5014937;28;20038;-70
2021/03/06 00:50:47;;;;;;;17.92;11.80;;;;;;;8.77;68.29;100620.03;5049585;28;20100;-70
2021/03/06 00:53:12;;;;;;;17.60;11.77;;;;;;;8.75;68.27;100611.38;5034160;28;20458;-70
2021/03/06 00:55:39;;;;;;;22.40;13.80;;;;;;;9.01;68.18;100640.00;5033574;28;20572;-68
2021/03/06 00:58:04;;;;;;;20.88;13.15;;;;;;;8.99;67.98;100636.47;5033447;28;20025;-71
2021/03/06 01:00:30;;;;;;;18.67;12.27;;;;;;;8.95;67.67;100640.59;5033637;28;20167;-69
2021/03/06 01:02:55;;;;;;;18.92;13.15;;;;;;;8.74;67.92;100619.91;5031940;28;20022;-71
2021/03/06 01:05:21;;;;;;;30.58;16.52;;;;;;;9.01;68.12;100647.72;5033966;28;20041;-69
2021/03/06 01:07:46;;;;;;;27.75;17.15;;;;;;;8.97;67.84;100633.84;5033677;28;20064;-68
2021/03/06 01:10:16;;;;;;;36.97;18.00;;;;;;;8.94;67.99;100625.97;5033738;28;20033;-68
2021/03/06 01:12:42;;;;;;;33.03;19.27;;;;;;;8.99;67.84;100639.06;5033481;28;20072;-68
2021/03/06 01:15:08;;;;;;;28.45;18.13;;;;;;;8.67;68.09;100600.72;5014814;28;20496;-71
2021/03/06 01:17:33;;;;;;;25.50;15.77;;;;;;;8.89;68.43;100641.19;5033293;28;20420;-72
2021/03/06 01:19:59;;;;;;;19.70;12.95;;;;;;;8.64;68.49;100610.00;5033463;28;20504;-73
2021/03/06 01:22:24;;;;;;;19.77;12.50;;;;;;;8.74;68.56;100643.06;5033418;28;20034;-70
2021/03/06 01:24:50;;;;;;;19.05;11.80;;;;;;;8.75;68.50;100639.69;5033298;28;20017;-68
2021/03/06 01:27:15;;;;;;;21.33;12.18;;;;;;;8.41;68.39;100605.47;5033014;28;20025;-69
2021/03/06 01:29:41;;;;;;;23.27;13.02;;;;;;;8.56;68.84;100655.91;5032844;28;20025;-67
2021/03/06 01:32:06;;;;;;;17.65;10.70;;;;;;;8.45;69.07;100663.13;5032663;28;20067;-70
2021/03/06 01:34:32;;;;;;;17.02;11.70;;;;;;;8.24;69.34;100658.66;5033160;28;20021;-71
2021/03/06 01:36:58;;;;;;;110.50;44.65;;;;;;;8.11;70.06;100658.84;5032724;28;20039;-68
2021/03/06 01:39:24;;;;;;;134.25;47.63;;;;;;;8.13;70.06;100643.53;5031761;28;20025;-71
2021/03/06 01:41:50;;;;;;;32.45;14.57;;;;;;;8.24;69.56;100666.38;5034421;28;20412;-70
2021/03/06 01:44:16;;;;;;;184.45;57.97;;;;;;;8.26;70.33;100659.63;5030919;28;20029;-68
2021/03/06 01:46:43;;;;;;;20.70;11.75;;;;;;;8.38;70.77;100659.34;5022347;28;20059;-67
2021/03/06 01:49:08;;;;;;;18.60;10.30;;;;;;;8.47;71.25;100658.06;5030768;28;20029;-70
2021/03/06 01:51:34;;;;;;;17.42;10.88;;;;;;;8.50;71.30;100664.25;5032245;28;20531;-70
2021/03/06 01:54:01;;;;;;;15.45;9.75;;;;;;;8.52;70.98;100654.91;5031964;28;20026;-70
2021/03/06 01:56:27;;;;;;;40.05;20.20;;;;;;;8.67;70.73;100666.75;5031968;28;20075;-70
2021/03/06 01:58:53;;;;;;;14.90;10.23;;;;;;;8.68;70.64;100669.38;5029350;28;20033;-70
2021/03/06 02:01:18;;;;;;;18.20;11.65;;;;;;;8.41;69.39;100638.91;5031866;28;20041;-68
2021/03/06 02:03:44;;;;;;;17.02;10.60;;;;;;;8.48;70.09;100660.69;5031580;28;20022;-70
2021/03/06 02:06:14;;;;;;;14.98;10.15;;;;;;;8.39;70.57;100652.53;5028816;28;20086;-70
2021/03/06 02:08:40;;;;;;;14.48;9.70;;;;;;;8.38;70.68;100672.19;5013055;28;20094;-69
2021/03/06 02:11:06;;;;;;;18.08;10.77;;;;;;;8.25;70.48;100657.00;5031589;28;20112;-69
2021/03/06 02:14:01;;;;;;;20.77;9.90;;;;;;;8.11;70.34;100661.44;5031218;28;20021;-71
2021/03/06 02:16:35;;;;;;;13.07;9.70;;;;;;;7.83;70.61;100639.47;4988779;28;20196;-69
2021/03/06 02:19:26;;;;;;;16.95;10.82;;;;;;;7.84;70.69;100668.63;4989429;28;20049;-68
2021/03/06 02:22:26;;;;;;;16.42;10.23;;;;;;;7.85;71.05;100657.53;4932143;29;20043;-70
2021/03/06 02:25:08;;;;;;;25.42;12.55;;;;;;;7.79;70.40;100635.00;4932800;29;20020;-68
2021/03/06 02:27:55;;;;;;;97.13;35.70;;;;;;;7.88;70.50;100657.72;4916241;29;20160;-71
2021/03/06 02:30:25;;;;;;;20.40;12.05;;;;;;;7.55;71.23;100634.63;4932457;29;20027;-72
2021/03/06 02:32:52;;;;;;;22.27;12.43;;;;;;;7.26;72.71;100636.53;4931579;29;20039;-70
2021/03/06 02:35:27;;;;;;;66.82;27.00;;;;;;;7.17;73.30;100644.66;4931446;29;20114;-71
2021/03/06 02:37:56;;;;;;;20.15;12.88;;;;;;;7.22;73.33;100650.91;4931670;29;20035;-70
2021/03/06 02:40:24;;;;;;;17.15;10.90;;;;;;;7.23;73.14;100649.22;4915317;29;20141;-71
2021/03/06 02:42:52;;;;;;;18.65;10.48;;;;;;;6.95;73.21;100617.84;4931545;29;20523;-69
2021/03/06 02:45:18;;;;;;;167.23;56.63;;;;;;;7.11;73.30;100644.31;4932069;29;20047;-72
2021/03/06 02:47:45;;;;;;;24.33;15.25;;;;;;;7.28;72.74;100650.34;4931716;29;20040;-70
2021/03/06 02:50:11;;;;;;;294.85;110.97;;;;;;;7.46;72.37;100670.97;4929807;29;20035;-72
2021/03/06 02:52:37;;;;;;;94.90;42.97;;;;;;;7.43;71.92;100653.72;4906981;28;20073;-71
2021/03/06 02:55:05;;;;;;;18.27;12.80;;;;;;;7.58;72.02;100670.75;4953399;28;20042;-72
2021/03/06 02:58:04;;;;;;;20.23;12.75;;;;;;;7.73;71.61;100678.38;4959469;28;20043;-69
2021/03/06 03:00:43;;;;;;;24.17;15.35;;;;;;;7.84;71.48;100687.53;5027812;28;20041;-69
2021/03/06 03:03:27;;;;;;;43.70;28.33;;;;;;;7.82;71.19;100676.25;5013473;28;20030;-71
2021/03/06 03:06:14;;;;;;;22.77;13.50;;;;;;;7.77;72.17;100680.28;5013700;28;20188;-70
2021/03/06 03:09:01;;;;;;;18.65;11.00;;;;;;;7.48;74.31;100678.75;5016276;28;20053;-70
2021/03/06 03:11:31;;;;;;;19.08;11.95;;;;;;;7.29;75.07;100672.69;5014098;28;20113;-69
2021/03/06 03:14:00;;;;;;;40.05;13.18;;;;;;;7.17;76.51;100672.00;5011525;28;20026;-69
2021/03/06 03:16:38;;;;;;;27.80;12.75;;;;;;;7.37;75.91;100667.94;5014047;28;20489;-68
2021/03/06 03:19:12;;;;;;;27.55;12.55;;;;;;;7.52;75.15;100688.41;5012579;28;20029;-69
2021/03/06 03:21:45;;;;;;;25.95;12.95;;;;;;;7.53;75.46;100685.06;5013852;28;20494;-69
2021/03/06 03:24:15;;;;;;;20.23;11.30;;;;;;;7.29;76.05;100667.53;5011288;28;20022;-70
2021/03/06 03:26:42;;;;;;;;;;;;;;;7.48;76.67;100723.34;5029050;28;20033;-69
2021/03/06 03:29:08;;;;;;;19.25;11.75;;;;;;;7.46;76.27;100719.78;5011392;28;20452;-67
2021/03/06 03:31:35;;;;;;;21.42;11.30;;;;;;;7.53;76.01;100715.88;5011775;28;20029;-69
2021/03/06 03:34:03;;;;;;;20.52;11.68;;;;;;;7.45;76.41;100725.72;5012385;28;20037;-69
2021/03/06 03:36:30;;;;;;;29.77;13.52;;;;;;;7.27;77.11;100702.50;5013389;28;20026;-69
2021/03/06 03:38:56;;;;;;;27.85;12.95;;;;;;;7.01;76.54;100742.19;5012598;28;20057;-69
2021/03/06 03:41:22;;;;;;;27.60;13.63;;;;;;;7.09;75.97;100751.16;5013627;28;20065;-69
2021/03/06 03:43:49;;;;;;;21.52;13.38;;;;;;;7.02;75.70;100749.94;4999548;28;20065;-70
2021/03/06 03:46:15;;;;;;;29.33;15.75;;;;;;;7.06;75.06;100735.59;5013885;28;20026;-69
2021/03/06 03:48:43;;;;;;;29.65;15.20;;;;;;;7.24;74.92;100746.88;5013226;28;20125;-66
2021/03/06 03:51:09;;;;;;;107.35;39.80;;;;;;;7.23;74.03;100739.13;5010606;28;20489;-67
2021/03/06 03:53:35;;;;;;;28.52;14.90;;;;;;;7.14;74.83;100760.03;5014566;28;20519;-68
2021/03/06 03:56:01;;;;;;;21.23;12.85;;;;;;;6.89;75.21;100748.38;5012260;28;20037;-67
2021/03/06 03:58:27;;;;;;;20.40;11.98;;;;;;;6.50;75.80;100696.56;5014491;28;20040;-68
2021/03/06 04:00:59;;;;;;;16.65;12.10;;;;;;;6.62;75.76;100719.50;5010517;28;20029;-71
2021/03/06 04:03:26;;;;;;;19.63;11.93;;;;;;;6.82;76.14;100763.34;5015422;28;20026;-69
2021/03/06 04:05:52;;;;;;;20.42;12.27;;;;;;;6.66;76.41;100761.59;5015014;28;20029;-70
2021/03/06 04:08:17;;;;;;;16.98;12.50;;;;;;;6.60;76.74;100770.72;5015520;28;20062;-69
2021/03/06 04:10:43;;;;;;;18.90;12.15;;;;;;;6.69;76.50;100766.88;5016573;28;20046;-71
2021/03/06 04:13:09;;;;;;;20.48;12.88;;;;;;;6.62;76.87;100770.78;5015646;28;20053;-72
2021/03/06 04:15:36;;;;;;;27.48;13.32;;;;;;;6.75;77.01;100775.84;5022771;28;20119;-70
2021/03/06 04:18:05;;;;;;;26.70;14.68;;;;;;;6.86;76.20;100776.44;5030672;28;20029;-70
2021/03/06 04:20:31;;;;;;;28.20;13.90;;;;;;;6.79;76.19;100764.03;5015129;28;20062;-70
2021/03/06 04:22:57;;;;;;;21.50;13.15;;;;;;;6.87;75.77;100778.22;5033854;28;20053;-70
2021/03/06 04:25:22;;;;;;;24.13;13.25;;;;;;;6.92;75.79;100789.63;5017628;28;20072;-71
2021/03/06 04:27:48;;;;;;;17.88;11.75;;;;;;;6.95;75.23;100783.75;5018004;28;20030;-71
2021/03/06 04:30:14;;;;;;;21.10;11.45;;;;;;;6.58;75.81;100738.94;5015228;28;20105;-68
2021/03/06 04:32:40;;;;;;;89.15;31.55;;;;;;;6.66;75.89;100743.63;5014976;28;20056;-72
2021/03/06 04:35:07;;;;;;;32.38;16.02;;;;;;;6.79;75.81;100772.66;5017124;28;20028;-71
2021/03/06 04:37:33;;;;;;;27.98;13.70;;;;;;;6.78;76.07;100783.69;5014179;28;20026;-74
2021/03/06 04:39:59;;;;;;;21.33;12.30;;;;;;;6.83;75.87;100778.84;5014179;28;20041;-72
2021/03/06 04:42:24;;;;;;;51.65;22.88;;;;;;;6.80;75.81;100781.22;5025842;28;20466;-70
2021/03/06 04:44:50;;;;;;;26.10;16.23;;;;;;;6.82;75.79;100784.75;5033581;28;20025;-73
2021/03/06 04:47:17;;;;;;;25.20;19.85;;;;;;;6.85;75.88;100779.78;5032239;28;20029;-68
2021/03/06 04:49:43;;;;;;;21.15;13.45;;;;;;;6.58;76.66;100803.09;5033741;28;20473;-72
2021/03/06 04:52:08;;;;;;;18.27;12.32;;;;;;;5.59;79.75;100763.81;5033297;28;20025;-70
2021/03/06 04:54:34;;;;;;;20.63;14.43;;;;;;;5.92;79.51;100771.81;5033621;28;20155;-69
2021/03/06 04:56:59;;;;;;;20.58;14.23;;;;;;;6.04;79.00;100778.50;5033558;28;20485;-68
2021/03/06 04:59:25;;;;;;;20.80;13.95;;;;;;;5.81;80.36;100772.84;5048940;28;20056;-71
2021/03/06 05:01:50;;;;;;;19.52;13.25;;;;;;;5.96;79.92;100783.13;5033284;28;20053;-69
2021/03/06 05:04:16;;;;;;;20.92;14.13;;;;;;;5.79;79.41;100746.22;5033682;28;20500;-70
2021/03/06 05:06:41;;;;;;;18.08;13.02;;;;;;;5.98;79.53;100769.66;5033055;28;20025;-68
2021/03/06 05:09:06;;;;;;;20.23;13.00;;;;;;;6.08;79.21;100783.91;5033097;28;20115;-68
2021/03/06 05:11:33;;;;;;;22.50;15.80;;;;;;;6.11;79.44;100783.22;5033669;28;20025;-70
2021/03/06 05:13:59;;;;;;;26.58;15.80;;;;;;;6.01;79.54;100760.34;5033028;28;20026;-69
2021/03/06 05:16:24;;;;;;;23.45;14.80;;;;;;;5.73;80.03;100741.63;5047566;28;20039;-72
2021/03/06 05:18:50;;;;;;;18.83;12.82;;;;;;;5.54;81.15;100749.84;5033059;28;20100;-72
2021/03/06 05:21:15;;;;;;;25.58;14.25;;;;;;;5.64;81.96;100785.47;5032828;28;20465;-71
2021/03/06 05:23:40;;;;;;;32.47;17.42;;;;;;;5.75;82.47;100782.72;5033352;28;20037;-70
2021/03/06 05:26:06;;;;;;;31.50;20.85;;;;;;;5.58;83.70;100768.84;5032737;28;20052;-71
2021/03/06 05:28:31;;;;;;;28.80;19.05;;;;;;;5.83;83.45;100796.84;5033078;28;20025;-68
2021/03/06 05:30:57;;;;;;;25.13;15.82;;;;;;;5.99;82.90;100796.16;5032550;28;20476;-71
2021/03/06 05:33:22;;;;;;;30.42;20.65;;;;;;;5.96;82.40;100788.25;5031813;28;20021;-69
2021/03/06 05:35:48;;;;;;;28.80;19.65;;;;;;;6.29;81.48;100803.91;5032724;28;20555;-71
2021/03/06 05:38:14;;;;;;;34.05;21.77;;;;;;;6.08;81.81;100773.66;5032820;28;20060;-68
2021/03/06 05:40:46;;;;;;;29.15;17.65;;;;;;;6.45;81.09;100815.97;5033037;28;20056;-70
2021/03/06 05:43:12;;;;;;;25.27;17.25;;;;;;;6.49;80.48;100802.53;5032862;28;20403;-69
2021/03/06 05:45:38;;;;;;;30.25;25.13;;;;;;;6.37;81.31;100812.06;5033038;28;20075;-68
2021/03/06 05:48:04;;;;;;;32.65;22.02;;;;;;;6.42;80.87;100808.13;5032578;28;20029;-70
2021/03/06 05:50:30;;;;;;;35.80;22.27;;;;;;;6.56;80.48;100801.22;5032315;28;20037;-69
2021/03/06 05:52:57;;;;;;;43.78;30.52;;;;;;;6.73;80.06;100792.81;5032740;28;20414;-68
2021/03/06 05:55:26;;;;;;;76.45;40.60;;;;;;;6.68;80.39;100801.94;5032812;28;20040;-70
2021/03/06 05:57:56;;;;;;;67.10;40.95;;;;;;;6.66;81.30;100774.44;5032571;28;20068;-74
2021/03/06 06:00:23;;;;;;;72.70;42.30;;;;;;;6.53;81.28;100760.88;5032329;28;20156;-68
2021/03/06 06:02:53;;;;;;;43.33;28.70;;;;;;;6.78;81.35;100793.97;5032377;28;20025;-69
2021/03/06 06:05:19;;;;;;;33.08;22.77;;;;;;;6.87;80.85;100803.88;5032007;28;20021;-69
2021/03/06 06:07:46;;;;;;;248.63;86.30;;;;;;;7.06;80.29;100820.31;5031259;28;20102;-69
2021/03/06 06:10:12;;;;;;;34.47;22.45;;;;;;;7.04;80.28;100825.38;5032099;28;20041;-73
2021/03/06 06:12:41;;;;;;;27.42;18.45;;;;;;;7.11;79.80;100821.47;5032360;28;20408;-70
2021/03/06 06:15:08;;;;;;;24.02;16.27;;;;;;;7.19;79.40;100807.38;5032234;28;20113;-68
2021/03/06 06:17:33;;;;;;;28.80;18.38;;;;;;;7.40;78.66;100820.53;5031932;28;20112;-68
2021/03/06 06:19:59;;;;;;;26.90;18.42;;;;;;;7.57;78.43;100833.41;5032223;28;20026;-73
2021/03/06 06:22:27;;;;;;;29.15;21.00;;;;;;;7.59;78.21;100829.25;5032114;28;20022;-72
2021/03/06 06:24:53;;;;;;;27.20;18.08;;;;;;;7.41;79.24;100821.41;5047384;28;20032;-68
2021/03/06 06:27:25;;;;;;;25.23;17.40;;;;;;;7.35;80.56;100823.63;5031965;28;20037;-69
2021/03/06 06:29:54;;;;;;;29.85;17.90;;;;;;;7.11;81.76;100883.09;5031839;28;20026;-70
2021/03/06 06:32:24;;;;;;;27.23;19.08;;;;;;;6.99;81.60;100880.72;5047410;28;20033;-71
2021/03/06 06:35:05;;;;;;;26.20;16.70;;;;;;;6.77;82.42;100892.28;5031958;28;20028;-71
2021/03/06 06:37:31;;;;;;;24.45;16.25;;;;;;;7.02;82.24;100887.69;5032043;28;20060;-70
2021/03/06 06:39:58;;;;;;;21.70;16.75;;;;;;;7.27;81.37;100907.97;5046961;28;20061;-68
2021/03/06 06:42:34;;;;;;;23.38;16.35;;;;;;;7.31;81.37;100904.75;5031551;28;20034;-70
2021/03/06 06:45:02;;;;;;;28.90;19.55;;;;;;;7.51;81.64;100907.59;5031470;28;20034;-69
2021/03/06 06:47:53;;;;;;;47.33;37.10;;;;;;;7.75;80.51;100918.34;5031871;28;20037;-71
2021/03/06 06:50:30;;;;;;;51.55;37.88;;;;;;;7.95;79.56;100929.75;5046538;28;20119;-71
2021/03/06 06:52:56;;;;;;;60.30;43.38;;;;;;;8.15;79.50;100937.63;5048898;28;20078;-72
2021/03/06 06:55:33;;;;;;;46.15;34.72;;;;;;;8.22;79.99;100932.03;5048810;28;20033;-72
2021/03/06 06:57:59;;;;;;;27.02;18.88;;;;;;;8.37;80.45;100927.72;5032608;28;20072;-71
2021/03/06 07:00:30;;;;;;;28.73;18.90;;;;;;;8.49;79.23;100936.94;5049009;28;20083;-71
2021/03/06 07:03:05;;;;;;;24.52;17.58;;;;;;;8.42;78.67;100908.28;4999320;28;20047;-74
2021/03/06 07:05:35;;;;;;;23.88;15.27;;;;;;;8.32;77.35;100879.41;5048517;28;20039;-71
2021/03/06 07:08:05;;;;;;;22.60;17.88;;;;;;;8.80;76.79;100941.06;5048797;28;20045;-68
2021/03/06 07:10:34;;;;;;;23.65;15.20;;;;;;;9.02;76.27;100945.66;5048643;28;20137;-69
2021/03/06 07:13:02;;;;;;;24.27;15.00;;;;;;;8.94;75.56;100916.94;5048856;28;20064;-69
2021/03/06 07:15:29;;;;;;;26.40;15.77;;;;;;;9.21;75.58;100956.06;5048615;28;20047;-69
2021/03/06 07:17:57;;;;;;;24.02;18.05;;;;;;;9.29;74.68;100947.84;5048696;28;20028;-70
2021/03/06 07:20:22;;;;;;;19.70;15.93;;;;;;;9.44;74.58;100958.03;5048544;28;20045;-69
2021/03/06 07:22:53;;;;;;;24.95;15.40;;;;;;;9.52;73.78;100955.03;5048602;28;20032;-70
2021/03/06 07:25:20;;;;;;;25.23;15.30;;;;;;;9.66;73.14;100962.56;5048607;28;20029;-68
2021/03/06 07:27:45;;;;;;;31.67;20.42;;;;;;;9.75;72.30;100965.56;5034673;28;20077;-72
2021/03/06 07:30:13;;;;;;;24.42;15.02;;;;;;;9.73;71.89;100940.53;5030902;28;20071;-69
2021/03/06 07:32:41;;;;;;;187.32;83.93;;;;;;;9.80;72.51;100952.91;5030747;28;20029;-68
2021/03/06 07:35:09;;;;;;;36.92;23.00;;;;;;;9.77;71.73;100926.94;5029869;28;20087;-74
2021/03/06 07:37:36;;;;;;;24.55;15.93;;;;;;;10.00;71.59;100954.72;5012685;28;20033;-69
2021/03/06 07:40:05;;;;;;;24.20;15.82;;;;;;;10.10;71.53;100966.34;5030567;28;20032;-68
2021/03/06 07:42:37;;;;;;;19.33;13.77;;;;;;;10.01;68.56;100932.41;5029413;28;20030;-70
2021/03/06 07:45:04;;;;;;;21.67;14.63;;;;;;;10.13;68.51;100953.63;5030596;28;20025;-68
2021/03/06 07:47:36;;;;;;;182.52;67.63;;;;;;;10.35;67.21;100975.25;5030915;28;20409;-75
2021/03/06 07:50:04;;;;;;;131.85;52.90;;;;;;;10.38;67.09;100964.19;5030607;28;20661;-68
2021/03/06 07:52:32;;;;;;;31.90;23.85;;;;;;;10.34;68.27;100952.81;5029231;28;20033;-70
2021/03/06 07:54:59;;;;;;;28.73;16.98;;;;;;;10.35;67.22;100945.16;5030096;28;20024;-71
2021/03/06 07:57:24;;;;;;;89.13;39.78;;;;;;;10.60;66.76;100979.84;5030135;28;20025;-69
2021/03/06 07:59:52;;;;;;;32.55;21.25;;;;;;;10.58;68.76;100968.59;5030012;28;20021;-71
2021/03/06 08:02:35;;;;;;;32.33;16.60;;;;;;;10.65;67.67;100968.03;5030014;28;20619;-71
2021/03/06 08:05:01;;;;;;;19.83;13.85;;;;;;;10.70;67.34;100969.94;5027976;28;20033;-69
2021/03/06 08:07:43;;;;;;;20.10;14.57;;;;;;;10.76;67.94;100978.84;5030278;28;20034;-71
2021/03/06 08:10:11;;;;;;;21.15;14.75;;;;;;;10.88;66.40;100982.75;5030474;28;20047;-69
2021/03/06 08:12:37;;;;;;;22.23;14.95;;;;;;;10.86;66.93;100972.38;5028309;28;20489;-71
2021/03/06 08:15:27;;;;;;;59.53;32.78;;;;;;;10.98;66.97;100978.06;5029546;28;20501;-71
2021/03/06 08:17:53;;;;;;;25.85;15.80;;;;;;;10.97;65.31;100976.31;5029340;28;20032;-71
2021/03/06 08:20:32;;;;;;;38.47;20.13;;;;;;;10.89;64.54;100943.22;5029861;28;20061;-68
2021/03/06 08:23:20;;;;;;;45.30;22.50;;;;;;;11.09;63.40;100975.06;5029960;28;20033;-71
2021/03/06 08:26:18;;;;;;;31.17;18.73;;;;;;;11.22;63.75;100972.19;5029928;28;20104;-71
2021/03/06 08:28:43;;;;;;;60.75;25.90;;;;;;;11.18;60.94;100962.56;5027404;28;20029;-72
2021/03/06 08:31:40;;;;;;;46.70;24.70;;;;;;;11.33;60.83;100977.81;5029808;28;20017;-70
2021/03/06 08:34:38;;;;;;;51.90;31.00;;;;;;;11.41;62.65;100984.19;5030052;28;20056;-69
2021/03/06 08:37:12;;;;;;;38.08;22.08;;;;;;;11.48;61.04;100986.22;5027130;28;20445;-68
2021/03/06 08:39:41;;;;;;;20.33;14.10;;;;;;;11.53;61.43;100980.38;5029802;28;20033;-71
2021/03/06 08:42:08;;;;;;;33.90;17.65;;;;;;;11.55;60.68;100973.53;5029668;28;20033;-72
2021/03/06 08:44:33;;;;;;;26.77;17.33;;;;;;;11.75;60.60;100993.34;5029708;28;20072;-71
2021/03/06 08:47:00;;;;;;;24.02;15.55;;;;;;;11.80;58.12;100989.25;5029657;28;20049;-68
2021/03/06 08:49:27;;;;;;;19.85;12.23;;;;;;;11.72;56.69;100957.00;5029774;28;20021;-71
2021/03/06 08:51:53;;;;;;;18.23;11.50;;;;;;;12.04;55.80;100985.03;5031715;28;20055;-71
2021/03/06 08:54:21;;;;;;;22.17;11.73;;;;;;;12.09;54.00;100984.34;5033183;28;20057;-68
2021/03/06 08:56:50;;;;;;;20.63;11.75;;;;;;;12.12;53.74;100992.25;5033014;28;20079;-70
2021/03/06 08:59:16;;;;;;;20.33;11.02;;;;;;;12.18;51.18;100999.38;5033197;28;20548;-71
2021/03/06 09:01:43;;;;;;;21.63;13.52;;;;;;;12.10;53.40;101000.75;5033322;28;20120;-69
2021/03/06 09:04:08;;;;;;;34.97;21.90;;;;;;;12.05;53.24;100997.13;5048876;28;20485;-71
2021/03/06 09:06:41;;;;;;;30.92;18.15;;;;;;;12.08;53.25;101018.81;5033485;28;20029;-69
2021/03/06 09:09:10;;;;;;;37.80;22.10;;;;;;;12.00;54.24;101007.31;5033279;28;20025;-68
2021/03/06 09:11:51;;;;;;;27.40;16.77;;;;;;;11.87;53.93;100992.06;5033601;28;20175;-71
2021/03/06 09:14:16;;;;;;;49.42;24.60;;;;;;;11.98;52.89;101022.75;5029808;28;20029;-69
2021/03/06 09:16:49;;;;;;;22.60;16.00;;;;;;;11.93;53.41;101031.13;5034895;28;20029;-70
2021/03/06 09:19:25;;;;;;;34.13;17.88;;;;;;;11.96;52.37;101029.59;5032834;28;20060;-69
2021/03/06 09:22:06;;;;;;;20.30;9.95;;;;;;;11.90;51.26;101023.22;5033234;28;20032;-71
2021/03/06 09:24:54;;;;;;;19.17;9.73;;;;;;;12.08;51.28;101031.75;5021610;28;20496;-69
2021/03/06 09:27:23;;;;;;;15.38;9.27;;;;;;;12.16;51.34;101031.19;5048166;28;20041;-69
2021/03/06 09:29:48;;;;;;;30.42;15.43;;;;;;;11.98;50.69;100999.47;5031317;28;20038;-70
2021/03/06 09:32:14;;;;;;;43.78;19.65;;;;;;;12.08;48.83;101031.75;5033241;28;20027;-70
2021/03/06 09:34:42;;;;;;;55.35;19.35;;;;;;;11.78;47.69;100985.69;5030844;28;20041;-70
2021/03/06 09:37:15;;;;;;;30.48;15.43;;;;;;;12.18;48.03;101050.25;5032927;28;20026;-70
2021/03/06 09:39:41;;;;;;;43.70;24.42;;;;;;;12.16;48.79;101054.50;5030325;28;20051;-70
2021/03/06 09:42:07;;;;;;;22.98;16.25;;;;;;;12.20;48.51;101053.78;5033002;28;20093;-70
2021/03/06 09:44:32;;;;;;;15.15;10.88;;;;;;;12.14;48.25;101057.88;5032708;28;20051;-71
2021/03/06 09:47:00;;;;;;;10.48;7.82;;;;;;;12.13;48.85;101061.28;5033112;28;20032;-70
2021/03/06 09:49:34;;;;;;;11.73;7.40;;;;;;;12.10;49.54;101065.47;5033124;28;20033;-70
2021/03/06 09:51:59;;;;;;;11.38;7.35;;;;;;;11.96;48.17;101051.97;5017960;28;20037;-70
2021/03/06 09:54:26;;;;;;;11.13;6.68;;;;;;;11.90;49.17;101051.69;5032719;28;20029;-70
2021/03/06 09:56:52;;;;;;;9.57;6.90;;;;;;;11.89;47.71;101073.22;5032506;28;20100;-70
2021/03/06 09:59:19;;;;;;;15.65;8.52;;;;;;;11.80;49.02;101063.34;5032820;28;20029;-70
2021/03/06 10:01:45;;;;;;;10.98;7.20;;;;;;;11.86;47.52;101070.50;5047218;28;20075;-70
2021/03/06 10:04:14;;;;;;;9.93;6.38;;;;;;;11.80;47.28;101064.25;5032401;28;20064;-70
2021/03/06 10:06:42;;;;;;;9.32;6.80;;;;;;;11.82;47.12;101065.22;5013373;28;20095;-71
2021/03/06 10:09:11;;;;;;;11.38;6.70;;;;;;;11.80;46.53;101064.25;5032452;28;20516;-71
2021/03/06 10:11:42;;;;;;;13.25;7.38;;;;;;;11.60;46.98;101040.16;5032394;28;20057;-71
2021/03/06 10:14:10;;;;;;;15.32;8.85;;;;;;;11.78;46.95;101059.84;5032488;28;20037;-70
2021/03/06 10:16:48;;;;;;;35.40;18.77;;;;;;;11.88;47.78;101068.88;5032264;28;20497;-70
2021/03/06 10:19:15;;;;;;;31.88;18.08;;;;;;;11.87;47.84;101043.81;5032153;28;20037;-71
2021/03/06 10:21:55;;;;;;;16.60;11.15;;;;;;;11.80;47.01;101056.50;5032475;28;20025;-71
2021/03/06 10:24:20;;;;;;;21.17;11.85;;;;;;;11.96;47.94;101071.00;5031969;28;20034;-71
2021/03/06 10:26:53;;;;;;;16.88;8.40;;;;;;;11.98;47.64;101069.31;5032164;28;20030;-71
2021/03/06 10:29:24;;;;;;;16.08;9.07;;;;;;;12.07;47.06;101073.13;5031980;28;20032;-71
2021/03/06 10:32:10;;;;;;;19.35;10.75;;;;;;;12.01;47.08;101065.97;5031238;28;20416;-69
2021/03/06 10:34:36;;;;;;;19.58;11.52;;;;;;;12.06;47.76;101067.06;5031632;28;20053;-70
2021/03/06 10:37:06;;;;;;;13.80;8.05;;;;;;;11.94;46.37;101041.53;5031808;28;20033;-70
2021/03/06 10:39:32;;;;;;;;;;;;;;;12.14;48.53;101069.97;5032316;28;20022;-70
2021/03/06 10:41:58;;;;;;;15.52;10.90;;;;;;;12.12;47.51;101075.09;5032060;28;20347;-71
2021/03/06 10:44:24;;;;;;;12.60;8.68;;;;;;;12.17;46.72;101074.38;5031655;28;20022;-70
2021/03/06 10:46:57;;;;;;;30.75;15.85;;;;;;;12.21;46.48;101058.13;5031458;28;20082;-70
2021/03/06 10:49:37;;;;;;;12.68;8.45;;;;;;;12.34;46.24;101067.28;5030383;28;20100;-70
2021/03/06 10:52:05;;;;;;;15.50;10.00;;;;;;;12.40;47.11;101067.50;5029713;28;20071;-70
2021/03/06 10:54:46;;;;;;;19.08;12.70;;;;;;;12.52;45.33;101070.56;5030977;28;20037;-70
2021/03/06 10:57:12;;;;;;;14.38;8.57;;;;;;;12.57;45.34;101073.34;5012465;28;20052;-71
2021/03/06 10:59:52;;;;;;;15.18;8.88;;;;;;;12.51;44.59;101060.16;5024442;28;20022;-70
2021/03/06 11:02:32;;;;;;;12.85;6.88;;;;;;;12.61;45.38;101065.75;5028521;28;20029;-70
2021/03/06 11:05:20;;;;;;;11.27;7.03;;;;;;;12.74;45.46;101074.00;5029731;28;20029;-70
2021/03/06 11:07:46;;;;;;;17.73;11.00;;;;;;;12.65;44.75;101052.91;5030693;28;20432;-70
2021/03/06 11:10:14;;;;;;;25.77;13.40;;;;;;;12.49;45.15;101062.69;5030756;28;20057;-71
2021/03/06 11:12:53;;;;;;;15.60;9.80;;;;;;;12.52;45.49;101067.97;5030929;28;20025;-70
2021/03/06 11:15:22;;;;;;;20.23;10.90;;;;;;;12.35;45.55;101069.03;5029771;28;20025;-70
2021/03/06 11:17:58;;;;;;;27.40;11.63;;;;;;;12.27;46.68;101050.63;5046726;28;20061;-70
2021/03/06 11:20:27;;;;;;;45.67;15.70;;;;;;;11.98;45.83;101012.41;5030677;28;20083;-70
2021/03/06 11:23:14;;;;;;;28.83;11.45;;;;;;;12.30;46.33;101063.69;5026708;28;20476;-69
2021/03/06 11:25:39;;;;;;;14.52;7.55;;;;;;;11.89;47.32;101053.41;5007584;28;20512;-70
2021/03/06 11:28:07;;;;;;;9.75;6.07;;;;;;;12.06;44.72;101066.16;5007541;28;20116;-71
2021/03/06 11:30:38;;;;;;;10.35;5.88;;;;;;;12.08;45.68;101059.38;5009302;28;20117;-72